Time;durP1;ratioP1;P1;durP2;ratioP2;P2;SDS_P1;SDS_P2;PMS_P1;PMS_P2;Temp;Humidity;BMP_temperature;BMP_pressure;BME280_temperature;BME280_humidity;BME280_pressure;Samples;Min_cycle;Max_cycle;Signal;HPM_P1;HPM_P2
2023/06/24 00:00:11;;;;;;;5.40;2.47;;;;;;;19.36;81.80;101112.59;5032423;28;20044;-44
2023/06/24 00:02:41;;;;;;;6.93;2.63;;;;;;;19.34;82.24;101106.56;5032994;28;21039;-48
2023/06/24 00:05:08;;;;;;;7.10;2.45;;;;;;;19.30;82.21;101111.38;5032425;28;20056;-47
2023/06/24 00:07:43;;;;;;;8.98;2.65;;;;;;;19.28;81.99;101114.56;5031996;28;21363;-45
2023/06/24 00:10:12;;;;;;;8.38;2.55;;;;;;;19.27;81.96;101103.75;5000925;28;20422;-45
2023/06/24 00:12:40;;;;;;;6.15;2.22;;;;;;;19.25;81.83;101109.75;5031784;28;21300;-45
2023/06/24 00:15:11;;;;;;;6.57;1.90;;;;;;;19.24;82.05;101107.34;5032238;28;20080;-48
2023/06/24 00:17:39;;;;;;;3.37;2.10;;;;;;;19.22;82.26;101120.97;5060238;28;20052;-46
2023/06/24 00:20:09;;;;;;;7.55;2.55;;;;;;;19.20;82.05;101117.75;5072882;28;20043;-44
2023/06/24 00:22:38;;;;;;;9.25;2.22;;;;;;;19.21;82.11;101119.38;5073589;28;20078;-45
2023/06/24 00:25:06;;;;;;;4.22;1.90;;;;;;;19.19;82.35;101121.75;5073172;28;20045;-44
2023/06/24 00:27:32;;;;;;;7.28;2.05;;;;;;;19.19;81.97;101124.56;5072819;28;20098;-46
2023/06/24 00:29:59;;;;;;;5.68;2.10;;;;;;;19.19;82.33;101128.19;5055016;28;20044;-44
2023/06/24 00:32:26;;;;;;;5.63;2.10;;;;;;;19.18;82.29;101131.38;5073451;28;20044;-44
2023/06/24 00:34:56;;;;;;;11.40;2.67;;;;;;;19.17;82.29;101119.34;5073288;28;20497;-47
2023/06/24 00:37:23;;;;;;;5.97;2.33;;;;;;;19.16;82.21;101122.56;5073409;28;20118;-44
2023/06/24 00:39:50;;;;;;;5.57;2.55;;;;;;;19.13;82.05;101126.13;5073409;28;20106;-44
2023/06/24 00:42:17;;;;;;;10.88;2.78;;;;;;;19.12;81.94;101132.94;5073354;28;20136;-45
2023/06/24 00:44:44;;;;;;;3.92;2.42;;;;;;;19.10;81.81;101126.94;5073466;28;20052;-44
2023/06/24 00:47:11;;;;;;;4.40;2.28;;;;;;;19.10;82.03;101124.13;5073107;28;20127;-44
2023/06/24 00:49:38;;;;;;;5.53;2.20;;;;;;;19.07;82.02;101127.72;5073289;28;20375;-45
2023/06/24 00:52:05;;;;;;;6.05;2.13;;;;;;;19.06;81.94;101135.31;5076006;28;20036;-44
2023/06/24 00:54:33;;;;;;;4.65;2.72;;;;;;;19.04;82.18;101131.28;5075730;28;20047;-44
2023/06/24 00:57:01;;;;;;;6.18;2.90;;;;;;;19.02;82.21;101128.09;5086135;28;20060;-45
2023/06/24 00:59:31;;;;;;;6.57;1.65;;;;;;;19.01;81.87;101127.28;5073225;28;20048;-45
2023/06/24 01:02:01;;;;;;;6.25;2.03;;;;;;;19.00;82.23;101130.50;5073404;28;20045;-47
2023/06/24 01:04:28;;;;;;;4.50;2.22;;;;;;;19.00;82.28;101130.50;5072872;28;20058;-45
2023/06/24 01:06:56;;;;;;;8.75;2.58;;;;;;;19.00;81.98;101133.28;5072832;28;20505;-45
2023/06/24 01:09:24;;;;;;;8.63;3.95;;;;;;;18.96;82.03;101135.25;5072175;28;20114;-44
2023/06/24 01:11:52;;;;;;;7.32;2.60;;;;;;;18.95;82.07;101133.66;5068016;28;20495;-45
2023/06/24 01:14:20;;;;;;;6.00;2.50;;;;;;;18.93;81.87;101136.84;5060648;28;20502;-45
2023/06/24 01:17:06;;;;;;;5.68;2.55;;;;;;;18.95;82.27;101144.91;5056609;28;20102;-46
2023/06/24 01:19:51;;;;;;;7.18;2.92;;;;;;;18.91;82.41;101139.25;5037172;28;20174;-46
2023/06/24 01:22:50;;;;;;;7.95;2.95;;;;;;;18.90;82.29;101137.66;5037689;28;20048;-47
2023/06/24 01:25:30;;;;;;;10.20;4.53;;;;;;;18.89;82.32;101129.63;5038480;28;20041;-46
2023/06/24 01:28:16;;;;;;;7.10;2.88;;;;;;;18.88;82.45;101133.66;5036100;28;20052;-47
2023/06/24 01:30:55;;;;;;;7.80;2.75;;;;;;;18.87;82.16;101134.81;5035549;28;20254;-47
2023/06/24 01:33:48;;;;;;;7.28;2.88;;;;;;;18.87;82.40;101140.44;5035692;28;20052;-47
2023/06/24 01:36:17;;;;;;;7.00;2.50;;;;;;;18.87;82.21;101132.03;5037619;28;20055;-45
2023/06/24 01:38:52;;;;;;;8.88;3.35;;;;;;;18.84;82.05;101131.63;5036467;28;20496;-46
2023/06/24 01:41:26;;;;;;;9.30;2.72;;;;;;;18.84;82.36;101123.19;5035993;28;20113;-47
2023/06/24 01:43:56;;;;;;;11.32;4.70;;;;;;;18.85;82.14;101121.97;5035044;28;20114;-48
2023/06/24 01:46:25;;;;;;;9.75;3.13;;;;;;;18.84;82.12;101114.78;5035081;28;20147;-45
2023/06/24 01:49:02;;;;;;;9.13;3.03;;;;;;;18.84;82.41;101122.38;5036779;28;20139;-48
2023/06/24 01:51:32;;;;;;;4.28;2.53;;;;;;;18.83;82.12;101110.34;5035881;28;20165;-45
2023/06/24 01:54:02;;;;;;;7.50;2.90;;;;;;;18.83;82.21;101110.34;5034863;28;20048;-46
2023/06/24 01:56:32;;;;;;;6.60;3.38;;;;;;;18.81;81.86;101118.38;5036250;28;20045;-45
2023/06/24 01:59:02;;;;;;;9.10;5.65;;;;;;;18.80;82.24;101122.34;5035125;28;20040;-45
2023/06/24 02:01:31;;;;;;;5.03;2.45;;;;;;;18.81;82.22;101123.16;5034124;28;20101;-45
2023/06/24 02:04:01;;;;;;;10.82;3.30;;;;;;;18.80;82.00;101122.34;5029587;28;20048;-45
2023/06/24 02:06:30;;;;;;;5.38;2.40;;;;;;;18.81;82.31;101121.16;5014908;28;20057;-45
2023/06/24 02:09:00;;;;;;;5.82;2.70;;;;;;;18.79;82.34;101115.16;5029736;28;20127;-48
2023/06/24 02:11:30;;;;;;;4.70;2.60;;;;;;;18.76;82.37;101120.75;5029759;28;20052;-49
2023/06/24 02:14:00;;;;;;;5.65;2.55;;;;;;;18.74;82.43;101107.09;5028743;28;20059;-47
2023/06/24 02:16:28;;;;;;;6.80;2.38;;;;;;;18.73;82.40;101111.09;5030531;28;20044;-46
2023/06/24 02:18:56;;;;;;;7.30;2.78;;;;;;;18.71;82.24;101107.91;5030053;28;20061;-47
2023/06/24 02:21:24;;;;;;;7.72;2.72;;;;;;;18.70;82.35;101123.09;5029988;28;20088;-46
2023/06/24 02:23:52;;;;;;;7.78;3.17;;;;;;;18.71;82.39;101118.31;5030705;28;20490;-47
2023/06/24 02:26:19;;;;;;;3.63;2.38;;;;;;;18.69;82.50;101109.47;5030419;28;20885;-45
2023/06/24 02:28:49;;;;;;;3.97;2.45;;;;;;;18.69;82.86;101118.69;5030091;28;20052;-46
2023/06/24 02:31:17;;;;;;;7.70;2.40;;;;;;;18.68;82.84;101125.50;5030781;28;20044;-49
2023/06/24 02:33:44;;;;;;;8.98;2.40;;;;;;;18.68;82.87;101113.47;5028230;28;20156;-49
2023/06/24 02:36:11;;;;;;;9.98;3.20;;;;;;;18.67;82.71;101109.84;5027148;28;20526;-49
2023/06/24 02:38:38;;;;;;;7.53;2.75;;;;;;;18.70;83.09;101114.69;5028090;28;20537;-49
2023/06/24 02:41:05;;;;;;;8.63;2.80;;;;;;;18.73;82.95;101113.09;5028750;28;20064;-47
2023/06/24 02:43:35;;;;;;;5.32;2.63;;;;;;;18.75;83.30;101110.69;5028816;28;20117;-47
2023/06/24 02:46:06;;;;;;;6.78;3.28;;;;;;;18.77;82.79;101103.50;5028395;28;20125;-47
2023/06/24 02:48:36;;;;;;;7.18;2.58;;;;;;;18.78;83.31;101107.94;5029841;28;20052;-48
2023/06/24 02:51:06;;;;;;;11.20;3.50;;;;;;;18.81;83.39;101107.16;5013367;28;20628;-48
2023/06/24 02:53:34;;;;;;;5.30;2.20;;;;;;;18.84;83.07;101105.56;5030460;28;20049;-51
2023/06/24 02:56:03;;;;;;;6.80;2.92;;;;;;;18.85;83.34;101095.94;5013921;28;20715;-46
2023/06/24 02:58:31;;;;;;;5.47;2.72;;;;;;;18.87;83.05;101101.16;5029417;28;20048;-48
2023/06/24 03:01:02;;;;;;;5.10;2.92;;;;;;;18.89;83.43;101098.75;4844423;22;20243;-48
2023/06/24 03:03:31;;;;;;;7.03;3.00;;;;;;;18.90;83.40;101104.00;5026697;28;20174;-48
2023/06/24 03:06:02;;;;;;;7.20;2.70;;;;;;;18.93;83.25;101108.78;5028209;28;20052;-49
2023/06/24 03:08:29;;;;;;;8.60;2.70;;;;;;;18.94;83.39;101099.19;5028920;28;20078;-49
2023/06/24 03:10:57;;;;;;;5.53;3.28;;;;;;;18.97;83.32;101103.22;5028321;28;20056;-47
2023/06/24 03:13:24;;;;;;;5.82;2.78;;;;;;;18.98;83.48;101104.81;5028086;28;20846;-48
2023/06/24 03:15:51;;;;;;;8.63;2.75;;;;;;;18.99;83.23;101095.19;5027695;28;20186;-50
2023/06/24 03:18:19;;;;;;;11.38;5.03;;;;;;;19.00;83.50;101108.03;5037664;28;20657;-47
2023/06/24 03:20:47;;;;;;;6.47;3.30;;;;;;;19.02;83.35;101100.03;5026871;28;20044;-47
2023/06/24 03:23:13;;;;;;;5.57;2.60;;;;;;;19.04;83.39;101098.44;5046843;28;20045;-45
2023/06/24 03:25:40;;;;;;;5.30;2.42;;;;;;;19.06;83.61;101106.47;5068880;28;20441;-45
2023/06/24 03:28:07;;;;;;;7.65;2.47;;;;;;;19.08;83.31;101098.47;5065641;28;20075;-46
2023/06/24 03:30:34;;;;;;;5.93;2.50;;;;;;;19.08;83.70;101104.06;5065419;28;20093;-45
2023/06/24 03:33:01;;;;;;;6.75;2.65;;;;;;;19.08;83.91;101110.50;5065998;28;20046;-45
2023/06/24 03:35:29;;;;;;;7.68;1.88;;;;;;;19.10;83.96;101108.09;5061143;28;20547;-44
2023/06/24 03:37:57;;;;;;;5.95;2.28;;;;;;;19.13;83.63;101095.25;5068139;28;20043;-45
2023/06/24 03:40:24;;;;;;;3.33;1.90;;;;;;;19.13;83.63;101098.06;5065820;28;20052;-45
2023/06/24 03:42:50;;;;;;;3.75;2.15;;;;;;;19.15;83.96;101087.25;5068316;28;20066;-45
2023/06/24 03:45:17;;;;;;;4.03;1.75;;;;;;;19.14;84.11;101091.28;5072523;28;20045;-45
2023/06/24 03:47:44;;;;;;;5.80;2.38;;;;;;;19.14;84.11;101108.13;5070516;28;20051;-44
2023/06/24 03:50:11;;;;;;;4.10;1.75;;;;;;;19.12;84.22;101104.88;5070551;28;20054;-45
2023/06/24 03:52:38;;;;;;;5.05;2.25;;;;;;;19.11;84.41;101108.91;5069843;28;20045;-50
2023/06/24 03:55:05;;;;;;;5.70;1.92;;;;;;;19.10;84.53;101113.69;5069258;28;20048;-45
2023/06/24 03:57:32;;;;;;;6.45;2.10;;;;;;;19.09;84.58;101117.69;5035711;28;20426;-45
2023/06/24 03:59:58;;;;;;;3.97;2.42;;;;;;;19.09;84.71;101112.09;5026444;28;20101;-45
2023/06/24 04:02:26;;;;;;;2.78;1.52;;;;;;;19.10;84.59;101113.69;5026534;28;20057;-48
2023/06/24 04:04:55;;;;;;;5.78;1.90;;;;;;;19.11;84.63;101120.94;5027963;28;21114;-46
2023/06/24 04:07:27;;;;;;;4.05;2.30;;;;;;;19.11;84.83;101126.53;5031252;28;21682;-45
2023/06/24 04:09:55;;;;;;;5.03;1.67;;;;;;;19.12;84.96;101121.72;5030026;28;20810;-45
2023/06/24 04:12:23;;;;;;;5.05;1.75;;;;;;;19.11;85.07;101120.13;5030647;28;20658;-48
2023/06/24 04:14:50;;;;;;;5.03;2.00;;;;;;;19.09;84.85;101122.53;5028850;28;20051;-46
2023/06/24 04:17:16;;;;;;;2.83;1.90;;;;;;;19.10;85.34;101118.50;5032422;28;20134;-49
2023/06/24 04:19:44;;;;;;;3.45;1.58;;;;;;;19.13;85.13;101117.72;5029907;28;20048;-45
2023/06/24 04:22:11;;;;;;;5.70;3.00;;;;;;;19.16;85.15;101122.56;5031562;28;20041;-45
2023/06/24 04:24:38;;;;;;;6.55;1.60;;;;;;;19.18;85.38;101114.53;5030852;28;20040;-47
2023/06/24 04:27:07;;;;;;;5.88;1.92;;;;;;;19.20;85.17;101117.75;5030265;28;20037;-46
2023/06/24 04:29:34;;;;;;;5.03;1.52;;;;;;;19.22;85.18;101120.97;5029894;28;20185;-45
2023/06/24 04:32:01;;;;;;;6.00;2.40;;;;;;;19.25;85.11;101125.78;5031259;28;20127;-47
2023/06/24 04:34:28;;;;;;;5.45;2.25;;;;;;;19.25;85.56;101131.41;5030238;28;20054;-47
2023/06/24 04:36:55;;;;;;;5.82;2.45;;;;;;;19.28;85.29;101122.19;5044760;28;20445;-47
2023/06/24 04:39:22;;;;;;;3.67;2.08;;;;;;;19.30;85.46;101122.63;5064066;28;20177;-45
2023/06/24 04:41:48;;;;;;;2.97;1.92;;;;;;;19.32;85.62;101118.22;5072939;28;20047;-45
2023/06/24 04:44:15;;;;;;;4.68;2.05;;;;;;;19.34;85.62;101134.66;5072266;28;20619;-44
2023/06/24 04:46:42;;;;;;;2.42;2.22;;;;;;;19.37;85.25;101128.25;5068834;28;20059;-45
2023/06/24 04:49:09;;;;;;;4.65;2.03;;;;;;;19.40;85.25;101127.50;5071682;28;20041;-47
2023/06/24 04:51:36;;;;;;;3.42;2.08;;;;;;;19.42;85.39;101133.50;5072478;28;20056;-45
2023/06/24 04:54:04;;;;;;;4.32;2.55;;;;;;;19.42;85.29;101134.31;5070076;28;20394;-44
2023/06/24 04:56:30;;;;;;;4.43;1.83;;;;;;;19.44;85.59;101134.72;5071750;28;20048;-44
2023/06/24 04:58:57;;;;;;;6.03;1.75;;;;;;;19.45;85.36;101127.09;5065172;28;20534;-45
2023/06/24 05:01:24;;;;;;;4.10;1.83;;;;;;;19.47;85.58;101143.53;5071446;28;20059;-44
2023/06/24 05:03:51;;;;;;;5.15;2.35;;;;;;;19.49;85.33;101152.38;5068631;28;20098;-45
2023/06/24 05:06:18;;;;;;;4.57;2.15;;;;;;;19.49;85.31;101147.56;5064650;28;20453;-45
2023/06/24 05:08:44;;;;;;;5.20;1.92;;;;;;;19.51;85.52;101148.00;5073483;28;20044;-45
2023/06/24 05:11:11;;;;;;;7.15;1.83;;;;;;;19.52;85.71;101143.97;5074048;28;20440;-45
2023/06/24 05:13:39;;;;;;;6.10;2.63;;;;;;;19.53;85.93;101144.78;5069226;28;20123;-46
2023/06/24 05:16:06;;;;;;;1.77;1.58;;;;;;;19.53;85.63;101142.78;5068256;28;20079;-45
2023/06/24 05:18:33;;;;;;;3.70;1.45;;;;;;;19.56;85.63;101142.00;5072555;28;20106;-46
2023/06/24 05:20:59;;;;;;;2.83;1.65;;;;;;;19.58;85.68;101139.59;5068803;28;20079;-44
2023/06/24 05:23:26;;;;;;;3.70;1.65;;;;;;;19.60;85.74;101148.41;5064659;28;20059;-45
2023/06/24 05:25:53;;;;;;;2.67;1.73;;;;;;;19.66;85.89;101146.84;5071887;28;20044;-44
2023/06/24 05:28:20;;;;;;;3.78;1.73;;;;;;;19.76;85.72;101140.44;5070041;28;20139;-45
2023/06/24 05:30:47;;;;;;;3.55;1.23;;;;;;;19.85;85.36;101145.69;5062218;28;20494;-45
2023/06/24 05:33:14;;;;;;;4.07;1.73;;;;;;;19.95;85.22;101140.06;5071060;28;20035;-45
2023/06/24 05:35:43;;;;;;;1.73;1.58;;;;;;;20.02;84.52;101142.88;5071030;28;20033;-45
2023/06/24 05:38:10;;;;;;;1.92;1.15;;;;;;;20.11;84.18;101138.88;5071405;28;20102;-45
2023/06/24 05:40:36;;;;;;;7.10;2.17;;;;;;;20.20;84.02;101142.09;5064979;28;20086;-45
2023/06/24 05:43:03;;;;;;;5.22;2.00;;;;;;;20.29;83.49;101151.78;5070416;28;20076;-46
2023/06/24 05:45:30;;;;;;;3.17;1.60;;;;;;;20.36;83.37;101145.34;5072330;28;20041;-46
2023/06/24 05:47:57;;;;;;;5.60;1.95;;;;;;;20.38;82.68;101138.13;5072626;28;20070;-45
2023/06/24 05:50:24;;;;;;;3.53;1.45;;;;;;;20.37;82.64;101144.13;5072134;28;20072;-45
2023/06/24 05:52:50;;;;;;;1.88;1.45;;;;;;;20.33;82.01;101146.16;5072378;28;20410;-45
2023/06/24 05:55:17;;;;;;;3.80;1.30;;;;;;;20.30;81.91;101136.50;5070882;28;20040;-46
2023/06/24 05:57:44;;;;;;;2.58;1.55;;;;;;;20.31;81.83;101142.91;5072032;28;20044;-44
2023/06/24 06:00:11;;;;;;;4.85;1.80;;;;;;;20.32;81.74;101144.53;5071899;28;20032;-45
2023/06/24 06:02:39;;;;;;;4.45;1.88;;;;;;;20.38;81.48;101142.94;5071881;28;20056;-45
2023/06/24 06:05:06;;;;;;;3.72;1.90;;;;;;;20.45;81.31;101138.09;5069318;28;20049;-44
2023/06/24 06:07:33;;;;;;;4.97;2.92;;;;;;;20.50;81.24;101134.09;5072325;28;20047;-45
2023/06/24 06:10:00;;;;;;;5.72;2.70;;;;;;;20.53;80.86;101138.91;5071830;28;20052;-44
2023/06/24 06:12:27;;;;;;;6.35;2.00;;;;;;;20.54;80.83;101140.53;5071091;28;20486;-44
2023/06/24 06:14:54;;;;;;;5.45;1.48;;;;;;;20.58;80.78;101146.94;5071644;28;20056;-46
2023/06/24 06:17:20;;;;;;;7.18;2.33;;;;;;;20.63;80.38;101140.91;5072237;28;20053;-45
2023/06/24 06:19:47;;;;;;;8.38;2.60;;;;;;;20.72;80.55;101141.28;5071864;28;20127;-45
2023/06/24 06:22:18;;;;;;;5.82;2.05;;;;;;;20.79;80.09;101146.09;5071999;28;20082;-45
2023/06/24 06:24:44;;;;;;;3.15;1.65;;;;;;;20.82;79.59;101140.47;5071333;28;20052;-45
2023/06/24 06:27:13;;;;;;;1.70;1.40;;;;;;;20.90;79.40;101144.06;5071423;28;20040;-44
2023/06/24 06:29:40;;;;;;;3.75;1.73;;;;;;;21.03;79.06;101148.84;5069533;28;20075;-46
2023/06/24 06:32:08;;;;;;;2.92;1.50;;;;;;;21.17;78.97;101134.78;5070902;28;20059;-45
2023/06/24 06:34:34;;;;;;;5.38;2.10;;;;;;;21.33;78.26;101147.59;5072442;28;20056;-46
2023/06/24 06:37:01;;;;;;;3.92;1.30;;;;;;;21.43;77.76;101146.72;5071715;28;20040;-45
2023/06/24 06:39:28;;;;;;;5.28;1.45;;;;;;;21.49;77.37;101150.72;5071286;28;20052;-45
2023/06/24 06:41:55;;;;;;;7.07;2.25;;;;;;;21.57;77.09;101146.66;5071224;28;20375;-44
2023/06/24 06:44:21;;;;;;;6.00;1.67;;;;;;;21.63;76.61;101150.66;5071329;28;20383;-45
2023/06/24 06:46:48;;;;;;;5.53;1.58;;;;;;;21.66;76.21;101152.66;5068126;28;20036;-44
2023/06/24 06:49:15;;;;;;;4.22;1.88;;;;;;;21.56;75.80;101145.06;5058153;28;20105;-42
2023/06/24 06:51:42;;;;;;;4.70;2.00;;;;;;;21.44;75.96;101153.97;5069108;28;20072;-44
2023/06/24 06:54:09;;;;;;;6.10;2.35;;;;;;;21.35;75.69;101145.16;5066625;28;20045;-44
2023/06/24 06:56:36;;;;;;;4.25;1.92;;;;;;;21.28;75.91;101140.38;5067328;28;20103;-45
2023/06/24 06:59:02;;;;;;;7.07;2.05;;;;;;;21.26;76.06;101145.59;5064654;28;20425;-45
2023/06/24 07:01:29;;;;;;;7.05;2.00;;;;;;;21.22;75.48;101142.00;5065063;28;20052;-46
2023/06/24 07:03:57;;;;;;;4.53;1.70;;;;;;;21.20;75.62;101153.69;5068868;28;20091;-44
2023/06/24 07:06:24;;;;;;;5.70;1.70;;;;;;;21.25;75.97;101158.06;5069271;28;20106;-45
2023/06/24 07:08:50;;;;;;;7.07;1.98;;;;;;;21.30;75.89;101154.03;5070029;28;20437;-46
2023/06/24 07:11:17;;;;;;;5.03;1.50;;;;;;;21.38;76.35;101155.59;5067789;28;20394;-45
2023/06/24 07:13:45;;;;;;;4.38;1.75;;;;;;;21.47;76.34;101158.81;5062769;28;20044;-44
2023/06/24 07:16:12;;;;;;;5.85;1.95;;;;;;;21.51;76.59;101171.66;5065192;28;20063;-45
2023/06/24 07:18:39;;;;;;;4.78;1.67;;;;;;;21.59;76.68;101169.59;5070107;28;20052;-45
2023/06/24 07:21:06;;;;;;;3.67;1.58;;;;;;;21.72;76.53;101167.91;5068016;28;20044;-46
2023/06/24 07:23:33;;;;;;;3.03;1.48;;;;;;;21.85;76.50;101164.22;5061601;28;20056;-44
2023/06/24 07:25:59;;;;;;;5.97;1.60;;;;;;;21.98;76.90;101170.19;5068442;28;20041;-45
2023/06/24 07:28:29;;;;;;;6.72;1.75;;;;;;;22.12;77.21;101175.75;5070609;28;20513;-45
2023/06/24 07:30:56;;;;;;;3.42;1.50;;;;;;;22.31;77.24;101169.56;5067355;28;20456;-45
2023/06/24 07:33:23;;;;;;;4.90;1.45;;;;;;;22.51;76.94;101180.28;5070964;28;20118;-45
2023/06/24 07:35:50;;;;;;;4.82;1.38;;;;;;;22.80;76.89;101179.66;5070688;28;20118;-45
2023/06/24 07:38:17;;;;;;;3.28;1.45;;;;;;;23.13;76.02;101189.41;5070691;28;20059;-46
2023/06/24 07:40:43;;;;;;;2.08;1.00;;;;;;;23.44;75.80;101185.44;5073468;28;20039;-46
2023/06/24 07:43:10;;;;;;;1.40;1.15;;;;;;;23.83;74.97;101189.78;5075107;28;20073;-43
2023/06/24 07:45:37;;;;;;;2.38;1.30;;;;;;;24.29;73.34;101197.59;5074627;28;20044;-42
2023/06/24 07:48:04;;;;;;;4.55;1.60;;;;;;;24.90;71.98;101201.06;5074707;28;20044;-43
2023/06/24 07:50:32;;;;;;;3.13;1.33;;;;;;;25.59;69.29;101212.28;5074802;28;20044;-45
2023/06/24 07:52:59;;;;;;;2.42;1.20;;;;;;;26.28;66.39;101214.00;5074419;28;20106;-43
2023/06/24 07:55:25;;;;;;;3.10;1.33;;;;;;;26.93;62.91;101219.69;5073210;28;20375;-45
2023/06/24 07:57:52;;;;;;;4.18;1.48;;;;;;;27.54;61.24;101223.31;5074326;28;20376;-46
2023/06/24 08:00:19;;;;;;;3.17;1.25;;;;;;;28.10;58.56;101220.84;5074298;28;20072;-45
2023/06/24 08:02:46;;;;;;;2.50;1.10;;;;;;;28.46;56.41;101236.78;5073364;28;20456;-44
2023/06/24 08:05:13;;;;;;;3.50;2.25;;;;;;;28.56;54.93;101224.25;5067938;28;20040;-44
2023/06/24 08:07:40;;;;;;;3.80;1.58;;;;;;;28.95;53.34;101229.44;5070974;28;20070;-46
2023/06/24 08:10:07;;;;;;;4.57;0.90;;;;;;;29.46;51.80;101228.03;5066476;28;20044;-44
2023/06/24 08:12:34;;;;;;;4.30;1.40;;;;;;;29.62;50.70;101237.66;5073926;28;20051;-45
2023/06/24 08:15:01;;;;;;;4.65;1.00;;;;;;;29.82;49.33;101233.22;5070119;28;20040;-44
2023/06/24 08:17:27;;;;;;;1.85;1.20;;;;;;;30.10;48.15;101232.13;5070060;28;20051;-44
2023/06/24 08:19:54;;;;;;;2.35;0.90;;;;;;;30.25;46.84;101235.22;5071080;28;20044;-45
2023/06/24 08:22:21;;;;;;;2.15;1.05;;;;;;;30.48;46.54;101236.75;5071014;28;20036;-47
2023/06/24 08:24:48;;;;;;;1.58;0.95;;;;;;;30.72;45.80;101240.66;5073294;28;20080;-44
2023/06/24 08:27:15;;;;;;;2.30;1.10;;;;;;;30.93;45.37;101227.53;5073161;28;20040;-46
2023/06/24 08:29:42;;;;;;;1.88;1.35;;;;;;;31.10;44.02;101232.50;5073741;28;20086;-44
2023/06/24 08:32:09;;;;;;;2.85;1.50;;;;;;;30.89;43.91;101230.53;5073100;28;20040;-45
2023/06/24 08:34:36;;;;;;;4.43;2.05;;;;;;;30.21;44.34;101231.69;5073723;28;20032;-45
2023/06/24 08:37:03;;;;;;;4.20;1.48;;;;;;;29.25;45.22;101237.38;5073526;28;20102;-45
2023/06/24 08:39:29;;;;;;;2.75;1.50;;;;;;;28.70;46.18;101233.13;5073937;28;20037;-45
2023/06/24 08:41:57;;;;;;;4.90;1.52;;;;;;;28.27;46.89;101236.56;5073638;28;20056;-45
2023/06/24 08:44:23;;;;;;;2.72;1.30;;;;;;;27.78;47.46;101235.19;5073280;28;20039;-44
2023/06/24 08:46:50;;;;;;;2.80;1.58;;;;;;;27.49;48.36;101238.09;5073481;28;20048;-45
2023/06/24 08:49:23;;;;;;;4.65;1.98;;;;;;;27.24;49.22;101237.16;5073526;28;20051;-44
2023/06/24 08:52:02;;;;;;;7.13;1.48;;;;;;;27.16;49.22;101243.00;5073195;28;20501;-45
2023/06/24 08:54:34;;;;;;;3.05;1.77;;;;;;;27.12;49.75;101236.63;5073552;28;20135;-46
2023/06/24 08:57:04;;;;;;;3.70;1.40;;;;;;;27.00;49.81;101240.22;5073324;28;20098;-45
2023/06/24 08:59:33;;;;;;;6.13;1.58;;;;;;;27.34;49.34;101241.75;5073503;28;20445;-48
2023/06/24 09:02:00;;;;;;;4.22;1.75;;;;;;;27.22;49.40;101231.13;5073318;28;20052;-44
2023/06/24 09:04:27;;;;;;;9.23;1.65;;;;;;;26.96;49.92;101233.00;5073235;28;20062;-45
2023/06/24 09:06:54;;;;;;;3.50;1.63;;;;;;;26.91;50.28;101231.53;5073533;28;20504;-45
2023/06/24 09:09:22;;;;;;;6.78;3.25;;;;;;;27.44;49.50;101235.00;5073264;28;20037;-45
2023/06/24 09:12:00;;;;;;;4.40;1.77;;;;;;;27.54;49.57;101233.88;5067875;28;20037;-45
2023/06/24 09:14:29;;;;;;;4.63;2.05;;;;;;;27.51;49.29;101231.97;5068131;28;20048;-45
2023/06/24 09:17:06;;;;;;;11.35;3.47;;;;;;;27.90;49.29;101225.91;5072872;28;20044;-45
2023/06/24 09:19:36;;;;;;;3.10;1.50;;;;;;;28.27;48.32;101236.56;5063800;28;20044;-45
2023/06/24 09:22:05;;;;;;;7.22;2.38;;;;;;;28.16;47.81;101229.59;5066046;28;20067;-45
2023/06/24 09:24:37;;;;;;;2.70;1.33;;;;;;;28.28;47.74;101212.53;5072237;28;20050;-45
2023/06/24 09:27:04;;;;;;;;;;;;;;;28.80;48.06;101211.25;5073480;28;20508;-46
2023/06/24 09:29:35;;;;;;;3.75;2.20;;;;;;;28.89;46.72;101217.03;5072739;28;19924;-46
2023/06/24 09:32:06;;;;;;;4.20;2.10;;;;;;;28.42;46.85;101221.84;5072641;28;20037;-46
2023/06/24 09:34:33;;;;;;;7.78;1.85;;;;;;;27.93;47.83;101227.84;5072673;28;20038;-45
2023/06/24 09:37:01;;;;;;;5.25;2.28;;;;;;;27.77;47.95;101230.78;5072531;28;20082;-46
2023/06/24 09:39:31;;;;;;;7.28;2.22;;;;;;;27.57;48.66;101232.97;5072733;28;20045;-45
2023/06/24 09:42:00;;;;;;;7.22;3.20;;;;;;;27.75;48.82;101221.88;5072946;28;20041;-45
2023/06/24 09:44:28;;;;;;;5.03;2.20;;;;;;;28.53;48.43;101216.63;5072681;28;20049;-46
2023/06/24 09:46:56;;;;;;;7.53;2.53;;;;;;;29.17;46.81;101216.03;5072200;28;20051;-47
2023/06/24 09:49:23;;;;;;;5.20;2.38;;;;;;;29.32;46.21;101230.59;5072323;28;20127;-45
2023/06/24 09:51:55;;;;;;;5.90;2.33;;;;;;;29.36;45.77;101234.16;5072296;28;20040;-45
2023/06/24 09:54:26;;;;;;;7.80;2.25;;;;;;;29.45;45.51;101228.50;5064053;28;20048;-47
2023/06/24 09:57:01;;;;;;;5.35;2.38;;;;;;;29.40;45.53;101226.25;5072234;28;20045;-45
2023/06/24 09:59:30;;;;;;;5.88;3.03;;;;;;;29.61;44.94;101216.09;5072579;28;20750;-45
2023/06/24 10:01:58;;;;;;;4.80;2.13;;;;;;;29.78;44.26;101228.91;5071922;28;20417;-45
2023/06/24 10:04:28;;;;;;;6.13;2.70;;;;;;;30.21;43.63;101228.06;5071731;28;20052;-46
2023/06/24 10:06:55;;;;;;;6.15;2.15;;;;;;;30.57;42.78;101229.03;5071043;28;20076;-45
2023/06/24 10:09:22;;;;;;;7.05;2.92;;;;;;;30.92;42.09;101234.53;5071724;28;20059;-46
2023/06/24 10:11:49;;;;;;;6.35;2.45;;;;;;;30.94;41.60;101246.28;5064433;28;20045;-47
2023/06/24 10:14:16;;;;;;;6.25;2.28;;;;;;;30.89;41.08;101226.88;5066202;28;20502;-45
2023/06/24 10:16:44;;;;;;;6.35;2.15;;;;;;;30.79;41.11;101231.00;5068389;28;20041;-46
2023/06/24 10:19:19;;;;;;;6.65;3.08;;;;;;;30.37;41.30;101225.75;5066356;28;20473;-45
2023/06/24 10:21:54;;;;;;;4.72;2.25;;;;;;;30.42;41.49;101227.22;5068696;28;20052;-47
2023/06/24 10:24:31;;;;;;;7.32;2.13;;;;;;;30.22;41.64;101224.72;5068341;28;20098;-44
2023/06/24 10:27:03;;;;;;;9.02;3.15;;;;;;;29.41;42.86;101222.94;5061186;28;20041;-45
2023/06/24 10:29:44;;;;;;;8.82;3.22;;;;;;;28.73;44.00;101225.72;5070074;28;20045;-47
2023/06/24 10:32:11;;;;;;;7.30;3.13;;;;;;;28.10;44.78;101215.13;5071984;28;20045;-46
2023/06/24 10:34:38;;;;;;;6.60;2.50;;;;;;;27.82;45.95;101212.34;5062470;28;20059;-45
2023/06/24 10:37:07;;;;;;;8.63;2.60;;;;;;;27.78;46.50;101212.44;5071414;28;20055;-47
2023/06/24 10:39:43;;;;;;;3.80;2.28;;;;;;;27.61;46.27;101210.94;5071286;28;20505;-48
2023/06/24 10:42:34;;;;;;;5.43;2.35;;;;;;;27.76;46.32;101203.56;5070191;28;20052;-46
2023/06/24 10:45:09;;;;;;;9.82;2.72;;;;;;;27.83;46.62;101206.19;5071445;28;20062;-45
2023/06/24 10:47:39;;;;;;;5.57;2.80;;;;;;;27.95;46.88;101201.78;5071743;28;20047;-45
2023/06/24 10:50:07;;;;;;;5.80;2.33;;;;;;;28.14;46.60;101195.09;5071423;28;20605;-45
2023/06/24 10:52:48;;;;;;;5.78;3.00;;;;;;;28.11;46.68;101199.66;5071353;28;20044;-46
2023/06/24 10:55:18;;;;;;;7.93;2.63;;;;;;;27.95;46.45;101208.28;5071204;28;20048;-44
2023/06/24 10:57:45;;;;;;;7.75;2.85;;;;;;;27.53;47.15;101212.38;5071305;28;20052;-44
2023/06/24 11:00:14;;;;;;;7.97;3.25;;;;;;;27.11;48.16;101206.59;5070964;28;20044;-46
2023/06/24 11:02:41;;;;;;;13.18;3.45;;;;;;;26.76;48.71;101190.50;5061802;28;20055;-44
2023/06/24 11:05:08;;;;;;;6.13;3.20;;;;;;;26.57;48.83;101197.06;5070554;28;20459;-44
2023/06/24 11:07:37;;;;;;;8.15;3.10;;;;;;;26.51;49.43;101193.16;5067954;28;20045;-50
2023/06/24 11:10:06;;;;;;;7.47;4.13;;;;;;;26.58;49.73;101201.50;5034258;28;20049;-44
2023/06/24 11:12:37;;;;;;;9.47;3.40;;;;;;;26.71;50.23;101188.19;5069007;28;20053;-47
2023/06/24 11:15:06;;;;;;;7.28;3.20;;;;;;;26.86;50.06;101206.50;5071055;28;20620;-45
2023/06/24 11:17:34;;;;;;;8.45;3.30;;;;;;;27.06;49.88;101192.94;5072552;28;20040;-44
2023/06/24 11:20:06;;;;;;;6.20;3.20;;;;;;;27.16;49.75;101199.59;5070118;28;20090;-44
2023/06/24 11:22:33;;;;;;;4.82;2.80;;;;;;;27.19;49.42;101204.41;5040196;28;20140;-47
2023/06/24 11:25:00;;;;;;;7.38;2.65;;;;;;;27.23;49.57;101207.91;5028049;28;20048;-44
2023/06/24 11:27:28;;;;;;;9.15;3.38;;;;;;;27.32;49.20;101210.13;5028768;28;20055;-45
2023/06/24 11:30:04;;;;;;;7.70;3.10;;;;;;;27.11;49.11;101200.16;5027592;28;20056;-50